Time;durP1;ratioP1;P1;durP2;ratioP2;P2;SDS_P1;SDS_P2;PMS_P1;PMS_P2;Temp;Humidity;BMP_temperature;BMP_pressure;BME280_temperature;BME280_humidity;BME280_pressure;Samples;Min_cycle;Max_cycle;Signal;HPM_P1;HPM_P2
2023/03/22 00:01:35;;;;;;;;;;;11.30;79.70;;;;;;5006922;28;19937;-77
2023/03/22 00:04:02;;;;;;;;;;;11.30;79.80;;;;;;5006308;28;19936;-79
2023/03/22 00:06:30;;;;;;;;;;;11.30;79.80;;;;;;5011201;28;19929;-76
2023/03/22 00:08:56;;;;;;;;;;;11.30;79.90;;;;;;5004132;28;19930;-79
2023/03/22 00:11:24;;;;;;;;;;;11.30;79.90;;;;;;5011213;28;19925;-77
2023/03/22 00:13:51;;;;;;;;;;;11.30;80.00;;;;;;5001494;28;19925;-76
2023/03/22 00:16:18;;;;;;;;;;;11.30;80.00;;;;;;5005066;28;19963;-76
2023/03/22 00:18:45;;;;;;;;;;;11.30;80.00;;;;;;5003814;28;19933;-78
2023/03/22 00:21:12;;;;;;;;;;;11.30;80.00;;;;;;5002880;28;19940;-76
2023/03/22 00:23:40;;;;;;;;;;;11.30;80.00;;;;;;5007797;28;19940;-79
2023/03/22 00:26:07;;;;;;;;;;;11.30;80.00;;;;;;5005689;28;19969;-77
2023/03/22 00:28:33;;;;;;;;;;;11.30;80.00;;;;;;5007519;28;19933;-77
2023/03/22 00:31:01;;;;;;;;;;;11.20;80.00;;;;;;5008260;28;19952;-76
2023/03/22 00:33:28;;;;;;;;;;;11.20;80.00;;;;;;5001847;28;20419;-78
2023/03/22 00:35:58;;;;;;;;;;;11.20;80.10;;;;;;5006866;28;19930;-79
2023/03/22 00:38:24;;;;;;;;;;;11.20;80.10;;;;;;5005051;28;19937;-77
2023/03/22 00:40:52;;;;;;;;;;;11.20;80.20;;;;;;5005208;28;19930;-79
2023/03/22 00:43:19;;;;;;;;;;;11.20;80.30;;;;;;5004374;28;19936;-77
2023/03/22 00:45:45;;;;;;;;;;;11.20;80.40;;;;;;5003423;28;20004;-78
2023/03/22 00:48:12;;;;;;;;;;;11.10;80.30;;;;;;5006965;28;19930;-77
2023/03/22 00:50:39;;;;;;;;;;;11.10;80.40;;;;;;5004787;28;19934;-77
2023/03/22 00:53:06;;;;;;;;;;;11.20;80.50;;;;;;5005325;28;19929;-77
2023/03/22 00:55:32;;;;;;;;;;;11.10;80.60;;;;;;5007236;28;19972;-80
2023/03/22 00:58:01;;;;;;;;;;;11.10;80.60;;;;;;5004647;28;19929;-77
2023/03/22 01:00:27;;;;;;;;;;;11.10;80.60;;;;;;4999263;28;19933;-77
2023/03/22 01:02:58;;;;;;;;;;;11.10;80.70;;;;;;5006653;28;19936;-77
2023/03/22 01:05:27;;;;;;;;;;;11.10;80.80;;;;;;5007969;28;19991;-77
2023/03/22 01:07:54;;;;;;;;;;;11.10;80.80;;;;;;5007367;28;19941;-78
2023/03/22 01:10:20;;;;;;;;;;;11.10;80.90;;;;;;5006550;28;20024;-77
2023/03/22 01:12:47;;;;;;;;;;;11.00;80.90;;;;;;5008240;28;19934;-78
2023/03/22 01:15:15;;;;;;;;;;;11.00;80.90;;;;;;5008588;28;20307;-76
2023/03/22 01:17:42;;;;;;;;;;;11.00;81.00;;;;;;5002959;28;20056;-77
2023/03/22 01:20:09;;;;;;;;;;;11.00;81.00;;;;;;5005765;28;19929;-76
2023/03/22 01:22:36;;;;;;;;;;;11.00;81.10;;;;;;5005830;28;20030;-76
2023/03/22 01:25:03;;;;;;;;;;;11.00;81.10;;;;;;5004488;28;19933;-79
2023/03/22 01:27:30;;;;;;;;;;;10.90;81.20;;;;;;5002320;28;20384;-78
2023/03/22 01:29:56;;;;;;;;;;;10.90;81.20;;;;;;5005891;28;19957;-78
2023/03/22 01:32:24;;;;;;;;;;;10.90;81.40;;;;;;5001886;28;19934;-77
2023/03/22 01:34:51;;;;;;;;;;;10.90;81.40;;;;;;5005397;28;19963;-78
2023/03/22 01:37:18;;;;;;;;;;;10.80;81.50;;;;;;5004220;28;19976;-77
2023/03/22 01:39:44;;;;;;;;;;;10.80;81.60;;;;;;5006374;28;19932;-76
2023/03/22 01:42:12;;;;;;;;;;;10.70;81.60;;;;;;5004266;28;20392;-76
2023/03/22 01:44:41;;;;;;;;;;;10.70;81.60;;;;;;5001817;28;19940;-75
2023/03/22 01:47:09;;;;;;;;;;;10.70;81.70;;;;;;4999855;28;19933;-76
2023/03/22 01:49:38;;;;;;;;;;;10.70;81.70;;;;;;5003246;28;19930;-76
2023/03/22 01:52:06;;;;;;;;;;;10.60;81.70;;;;;;5004318;28;20077;-76
2023/03/22 01:54:35;;;;;;;;;;;10.60;81.70;;;;;;5002524;28;19937;-77
2023/03/22 01:57:02;;;;;;;;;;;10.60;81.80;;;;;;5006204;28;19983;-77
2023/03/22 01:59:30;;;;;;;;;;;10.60;81.80;;;;;;5000872;28;19929;-75
2023/03/22 02:01:58;;;;;;;;;;;10.60;81.90;;;;;;5003482;28;19964;-76
2023/03/22 02:04:33;;;;;;;;;;;10.50;81.80;;;;;;5003866;28;19925;-77
2023/03/22 02:07:02;;;;;;;;;;;10.60;81.90;;;;;;5010191;28;19935;-76
2023/03/22 02:09:29;;;;;;;;;;;10.50;81.90;;;;;;5001376;28;19936;-76
2023/03/22 02:11:59;;;;;;;;;;;10.50;82.00;;;;;;5002641;28;19937;-78
2023/03/22 02:14:31;;;;;;;;;;;10.50;82.00;;;;;;5002598;28;19935;-76
2023/03/22 02:17:04;;;;;;;;;;;10.40;81.90;;;;;;5004391;28;19940;-76
2023/03/22 02:19:44;;;;;;;;;;;10.40;82.00;;;;;;5002815;28;20391;-77
2023/03/22 02:22:37;;;;;;;;;;;10.40;82.00;;;;;;5005410;28;19933;-77
2023/03/22 02:25:21;;;;;;;;;;;10.50;82.10;;;;;;5001837;28;19937;-77
2023/03/22 02:28:12;;;;;;;;;;;10.40;82.00;;;;;;4994049;28;19930;-76
2023/03/22 02:30:53;;;;;;;;;;;10.40;82.00;;;;;;4993678;28;20631;-76
2023/03/22 02:33:27;;;;;;;;;;;10.40;82.00;;;;;;5004132;28;19929;-75
2023/03/22 02:36:01;;;;;;;;;;;10.40;82.00;;;;;;5000370;28;19941;-77
2023/03/22 02:38:47;;;;;;;;;;;10.40;82.10;;;;;;5002531;28;19945;-77
2023/03/22 02:41:16;;;;;;;;;;;10.40;82.10;;;;;;5002713;28;20307;-74
2023/03/22 02:43:51;;;;;;;;;;;10.30;82.10;;;;;;5002849;28;19936;-77
2023/03/22 02:46:21;;;;;;;;;;;10.30;82.10;;;;;;5002328;28;19936;-75
2023/03/22 02:48:52;;;;;;;;;;;10.30;82.20;;;;;;4997913;28;20400;-76
2023/03/22 02:51:21;;;;;;;;;;;10.30;82.20;;;;;;5002527;28;19940;-76
2023/03/22 02:53:52;;;;;;;;;;;10.30;82.20;;;;;;5000775;28;19933;-76
2023/03/22 02:56:20;;;;;;;;;;;10.30;82.30;;;;;;5000956;28;19930;-76
2023/03/22 02:58:50;;;;;;;;;;;10.30;82.30;;;;;;5002102;28;19933;-77
2023/03/22 03:01:18;;;;;;;;;;;10.30;82.30;;;;;;4999654;28;19930;-77
2023/03/22 03:03:47;;;;;;;;;;;10.20;82.30;;;;;;5000731;28;19934;-77
2023/03/22 03:06:14;;;;;;;;;;;10.20;82.40;;;;;;5006067;28;19936;-77
2023/03/22 03:08:41;;;;;;;;;;;10.20;82.40;;;;;;5002130;28;19966;-77
2023/03/22 03:11:10;;;;;;;;;;;10.30;82.50;;;;;;4999675;28;21784;-76
2023/03/22 03:13:37;;;;;;;;;;;10.20;82.40;;;;;;5000067;28;19937;-75
2023/03/22 03:16:06;;;;;;;;;;;10.20;82.50;;;;;;5001163;28;19976;-78
2023/03/22 03:18:39;;;;;;;;;;;10.20;82.50;;;;;;5000669;28;19941;-79
2023/03/22 03:21:13;;;;;;;;;;;10.20;82.50;;;;;;5001965;28;19983;-76
2023/03/22 03:23:48;;;;;;;;;;;10.20;82.60;;;;;;5002068;28;20453;-77
2023/03/22 03:26:21;;;;;;;;;;;10.20;82.60;;;;;;5004593;28;19933;-77
2023/03/22 03:28:50;;;;;;;;;;;10.20;82.70;;;;;;5007325;28;20407;-77
2023/03/22 03:31:20;;;;;;;;;;;10.20;82.60;;;;;;5003867;28;19955;-76
2023/03/22 03:33:53;;;;;;;;;;;10.20;82.70;;;;;;5000030;28;19932;-76
2023/03/22 03:36:20;;;;;;;;;;;10.20;82.70;;;;;;5011544;28;20544;-76
2023/03/22 03:38:49;;;;;;;;;;;10.20;82.70;;;;;;5006579;28;19936;-75
2023/03/22 03:41:18;;;;;;;;;;;10.20;82.80;;;;;;5005612;28;19929;-76
2023/03/22 03:43:45;;;;;;;;;;;10.20;82.80;;;;;;5006261;28;19929;-77
2023/03/22 03:46:12;;;;;;;;;;;10.20;82.80;;;;;;5007461;28;19929;-75
2023/03/22 03:48:41;;;;;;;;;;;10.20;82.80;;;;;;5003268;28;20054;-76
2023/03/22 03:51:07;;;;;;;;;;;10.20;82.90;;;;;;5000804;28;19926;-77
2023/03/22 03:53:34;;;;;;;;;;;10.20;82.90;;;;;;5007205;28;19937;-77
2023/03/22 03:56:01;;;;;;;;;;;10.20;82.90;;;;;;5005906;28;20011;-75
2023/03/22 03:58:29;;;;;;;;;;;10.20;82.90;;;;;;5011749;28;19992;-77
2023/03/22 04:00:56;;;;;;;;;;;10.20;82.90;;;;;;5002512;28;19979;-77
2023/03/22 04:03:22;;;;;;;;;;;10.10;82.90;;;;;;5007361;28;20513;-76
2023/03/22 04:05:49;;;;;;;;;;;10.10;83.00;;;;;;5006633;28;20396;-77
2023/03/22 04:08:15;;;;;;;;;;;10.10;83.00;;;;;;5006208;28;20478;-76
2023/03/22 04:10:42;;;;;;;;;;;10.10;83.00;;;;;;5009525;28;19990;-75
2023/03/22 04:13:09;;;;;;;;;;;10.10;83.10;;;;;;5005866;28;19935;-75
2023/03/22 04:15:37;;;;;;;;;;;10.10;83.20;;;;;;5001708;28;19937;-75
2023/03/22 04:18:04;;;;;;;;;;;10.10;83.30;;;;;;5003903;28;19926;-77
2023/03/22 04:20:30;;;;;;;;;;;10.10;83.30;;;;;;5003680;28;20042;-78
2023/03/22 04:22:57;;;;;;;;;;;10.00;83.20;;;;;;5002401;28;19956;-76
2023/03/22 04:25:28;;;;;;;;;;;10.00;83.30;;;;;;5005626;28;19964;-78
2023/03/22 04:27:55;;;;;;;;;;;10.00;83.30;;;;;;5004961;28;19933;-78
2023/03/22 04:30:23;;;;;;;;;;;10.00;83.40;;;;;;5006226;28;19952;-78
2023/03/22 04:32:51;;;;;;;;;;;10.00;84.10;;;;;;5004132;28;20267;-76
2023/03/22 04:35:18;;;;;;;;;;;9.90;83.40;;;;;;5005628;28;19940;-77
2023/03/22 04:37:44;;;;;;;;;;;10.00;83.40;;;;;;5002472;28;19934;-77
2023/03/22 04:40:15;;;;;;;;;;;9.90;83.40;;;;;;5006347;28;19939;-76
2023/03/22 04:42:42;;;;;;;;;;;9.90;83.40;;;;;;5008886;28;19934;-76
2023/03/22 04:45:09;;;;;;;;;;;9.90;83.40;;;;;;5003651;28;21475;-76
2023/03/22 04:47:35;;;;;;;;;;;9.90;83.50;;;;;;5004844;28;20020;-77
2023/03/22 04:50:03;;;;;;;;;;;9.90;83.50;;;;;;5001002;28;20016;-79
2023/03/22 04:52:30;;;;;;;;;;;9.90;83.50;;;;;;5006513;28;19933;-80
2023/03/22 04:54:57;;;;;;;;;;;9.80;83.50;;;;;;5004441;28;19930;-78
2023/03/22 04:57:23;;;;;;;;;;;9.80;83.50;;;;;;5004502;28;20397;-77
2023/03/22 04:59:50;;;;;;;;;;;9.80;83.60;;;;;;5001759;28;19989;-76
2023/03/22 05:02:16;;;;;;;;;;;9.80;83.60;;;;;;5002051;28;19933;-77
2023/03/22 05:04:43;;;;;;;;;;;9.80;83.70;;;;;;4996143;28;19956;-74
2023/03/22 05:07:11;;;;;;;;;;;9.80;83.70;;;;;;5002638;28;19937;-76
2023/03/22 05:09:38;;;;;;;;;;;9.80;83.80;;;;;;5002322;28;19941;-77
2023/03/22 05:12:04;;;;;;;;;;;9.80;83.80;;;;;;4999082;28;19940;-77
2023/03/22 05:14:31;;;;;;;;;;;9.70;83.70;;;;;;4999609;28;19929;-77
2023/03/22 05:16:57;;;;;;;;;;;9.70;83.80;;;;;;5001888;28;19937;-78
2023/03/22 05:19:24;;;;;;;;;;;9.70;84.50;;;;;;4997710;28;19941;-75
2023/03/22 05:21:56;;;;;;;;;;;9.70;83.80;;;;;;5001278;28;19972;-74
2023/03/22 05:24:24;;;;;;;;;;;9.70;83.90;;;;;;5000221;28;19932;-74
2023/03/22 05:26:52;;;;;;;;;;;9.60;83.80;;;;;;5000416;28;20964;-77
2023/03/22 05:29:20;;;;;;;;;;;9.60;83.90;;;;;;5006530;28;20459;-76
2023/03/22 05:31:46;;;;;;;;;;;9.60;83.90;;;;;;5001219;28;20110;-75
2023/03/22 05:34:13;;;;;;;;;;;9.60;83.90;;;;;;5002474;28;19940;-77
2023/03/22 05:36:40;;;;;;;;;;;9.60;83.90;;;;;;4998541;28;20020;-74
2023/03/22 05:39:06;;;;;;;;;;;9.60;83.90;;;;;;4998336;28;19952;-76
2023/03/22 05:41:34;;;;;;;;;;;9.60;84.00;;;;;;5004648;28;19969;-78
2023/03/22 05:44:01;;;;;;;;;;;9.60;84.00;;;;;;5001512;28;19937;-78
2023/03/22 05:46:28;;;;;;;;;;;9.50;84.00;;;;;;4999493;28;19961;-75
2023/03/22 05:48:54;;;;;;;;;;;9.50;84.00;;;;;;4999417;28;19938;-76
2023/03/22 05:51:24;;;;;;;;;;;9.50;84.00;;;;;;4997471;28;19983;-76
2023/03/22 05:53:52;;;;;;;;;;;9.40;84.80;;;;;;4996799;28;19936;-75
2023/03/22 05:56:22;;;;;;;;;;;9.50;84.20;;;;;;5001802;28;19929;-75
2023/03/22 05:58:50;;;;;;;;;;;9.40;84.30;;;;;;4999749;28;19948;-75
2023/03/22 06:01:19;;;;;;;;;;;9.40;84.30;;;;;;4998654;28;20023;-76
2023/03/22 06:03:47;;;;;;;;;;;9.40;84.40;;;;;;4997123;28;19934;-75
2023/03/22 06:06:14;;;;;;;;;;;9.40;84.40;;;;;;5003323;28;19969;-76
2023/03/22 06:08:41;;;;;;;;;;;9.40;84.40;;;;;;4999618;28;20406;-75
2023/03/22 06:11:07;;;;;;;;;;;9.40;84.40;;;;;;5002868;28;19933;-74
2023/03/22 06:13:34;;;;;;;;;;;9.40;84.40;;;;;;5000884;28;19933;-77
2023/03/22 06:16:02;;;;;;;;;;;9.40;84.40;;;;;;5006810;28;19940;-78
2023/03/22 06:18:29;;;;;;;;;;;9.40;84.40;;;;;;4996827;28;20623;-77
2023/03/22 06:20:56;;;;;;;;;;;9.40;84.40;;;;;;4990686;28;19937;-75
2023/03/22 06:23:22;;;;;;;;;;;9.30;84.30;;;;;;4991205;28;19933;-76
2023/03/22 06:25:49;;;;;;;;;;;9.40;84.40;;;;;;4997995;28;19930;-76
2023/03/22 06:28:16;;;;;;;;;;;9.30;84.30;;;;;;5002777;28;19960;-68
2023/03/22 06:30:42;;;;;;;;;;;9.30;84.30;;;;;;5003854;28;20539;-68
2023/03/22 06:33:10;;;;;;;;;;;9.30;84.30;;;;;;5001081;28;19975;-68
2023/03/22 06:35:37;;;;;;;;;;;9.40;84.40;;;;;;5009795;28;19929;-68
2023/03/22 06:38:03;;;;;;;;;;;9.30;84.30;;;;;;5008004;28;19941;-71
2023/03/22 06:40:30;;;;;;;;;;;9.30;84.30;;;;;;4999953;28;19933;-69
2023/03/22 06:42:56;;;;;;;;;;;9.30;84.40;;;;;;5002091;28;19934;-71
2023/03/22 06:45:23;;;;;;;;;;;9.30;84.40;;;;;;5002092;28;20418;-68
2023/03/22 06:47:50;;;;;;;;;;;9.30;84.40;;;;;;5002196;28;20643;-69
2023/03/22 06:50:18;;;;;;;;;;;9.30;84.40;;;;;;4999566;28;19960;-68
2023/03/22 06:52:44;;;;;;;;;;;9.30;84.50;;;;;;5001109;28;19929;-68
2023/03/22 06:55:11;;;;;;;;;;;9.30;84.60;;;;;;5005408;28;19930;-69
2023/03/22 06:57:37;;;;;;;;;;;9.20;84.50;;;;;;5006604;28;19930;-69
2023/03/22 07:00:04;;;;;;;;;;;9.30;84.60;;;;;;5003081;28;19929;-68
2023/03/22 07:02:31;;;;;;;;;;;9.30;84.70;;;;;;5010549;28;19929;-70
2023/03/22 07:04:57;;;;;;;;;;;9.20;84.60;;;;;;5002897;28;19930;-69
2023/03/22 07:07:25;;;;;;;;;;;9.20;84.80;;;;;;5002127;28;19952;-77
2023/03/22 07:09:52;;;;;;;;;;;9.20;84.70;;;;;;5000089;28;20384;-78
2023/03/22 07:12:19;;;;;;;;;;;9.30;84.80;;;;;;5001001;28;19938;-77
2023/03/22 07:14:45;;;;;;;;;;;9.30;84.80;;;;;;5005659;28;19933;-77
2023/03/22 07:17:13;;;;;;;;;;;9.30;84.80;;;;;;4998614;28;19937;-76
2023/03/22 07:19:40;;;;;;;;;;;9.30;84.70;;;;;;4997879;28;20699;-76
2023/03/22 07:22:07;;;;;;;;;;;9.30;84.70;;;;;;5009123;28;19937;-77
2023/03/22 07:24:35;;;;;;;;;;;9.20;84.70;;;;;;4997490;28;20072;-76
2023/03/22 07:27:01;;;;;;;;;;;9.20;84.90;;;;;;5000818;28;20473;-77
2023/03/22 07:29:28;;;;;;;;;;;9.30;85.00;;;;;;4998349;28;19934;-76
2023/03/22 07:31:55;;;;;;;;;;;9.30;85.10;;;;;;5001576;28;19936;-77
2023/03/22 07:34:21;;;;;;;;;;;9.30;85.10;;;;;;5005509;28;19929;-76
2023/03/22 07:36:48;;;;;;;;;;;9.30;85.20;;;;;;5001303;28;20431;-75
2023/03/22 07:39:14;;;;;;;;;;;9.30;85.30;;;;;;5001665;28;19929;-76
2023/03/22 07:41:42;;;;;;;;;;;9.30;85.40;;;;;;5004689;28;20395;-76
2023/03/22 07:44:09;;;;;;;;;;;9.30;85.30;;;;;;5000430;28;20075;-75
2023/03/22 07:46:35;;;;;;;;;;;9.40;85.40;;;;;;4991706;28;20591;-76
2023/03/22 07:49:02;;;;;;;;;;;9.40;85.30;;;;;;4986259;28;20725;-76
2023/03/22 07:51:29;;;;;;;;;;;9.40;85.30;;;;;;4995084;28;20481;-76
2023/03/22 07:53:55;;;;;;;;;;;9.40;85.40;;;;;;5004589;28;20157;-77
2023/03/22 07:56:22;;;;;;;;;;;9.40;85.40;;;;;;4985295;28;19945;-77
2023/03/22 07:58:50;;;;;;;;;;;9.40;85.40;;;;;;4985624;28;19934;-75
2023/03/22 08:01:16;;;;;;;;;;;9.50;85.50;;;;;;4992750;28;20003;-76
2023/03/22 08:03:43;;;;;;;;;;;9.40;85.50;;;;;;4993587;28;19929;-76
2023/03/22 08:06:11;;;;;;;;;;;9.50;85.60;;;;;;4998407;28;19960;-75
2023/03/22 08:08:38;;;;;;;;;;;9.50;85.70;;;;;;4999739;28;19929;-76
2023/03/22 08:11:05;;;;;;;;;;;9.50;85.90;;;;;;4985415;28;19933;-75
2023/03/22 08:13:31;;;;;;;;;;;9.50;86.00;;;;;;4990001;28;19933;-77
2023/03/22 08:15:59;;;;;;;;;;;9.60;86.00;;;;;;4987580;28;19933;-76
2023/03/22 08:18:26;;;;;;;;;;;9.60;85.70;;;;;;4985500;28;20619;-77
2023/03/22 08:20:53;;;;;;;;;;;9.60;85.60;;;;;;4991719;28;19940;-75
2023/03/22 08:23:19;;;;;;;;;;;9.70;85.70;;;;;;4992835;28;20305;-75
2023/03/22 08:25:46;;;;;;;;;;;9.70;85.60;;;;;;4990879;28;19933;-74
2023/03/22 08:28:14;;;;;;;;;;;9.80;85.40;;;;;;4991802;28;20628;-75
2023/03/22 08:30:41;;;;;;;;;;;9.80;85.30;;;;;;4990431;28;20465;-76
2023/03/22 08:33:09;;;;;;;;;;;9.90;85.30;;;;;;4990015;28;19937;-76
2023/03/22 08:35:35;;;;;;;;;;;9.90;85.20;;;;;;4990197;28;20000;-75
2023/03/22 08:38:02;;;;;;;;;;;10.00;85.10;;;;;;4988952;28;19933;-76
2023/03/22 08:40:29;;;;;;;;;;;10.00;85.00;;;;;;4990453;28;19930;-76
2023/03/22 08:42:55;;;;;;;;;;;10.10;85.20;;;;;;4995529;28;19987;-77
2023/03/22 08:45:22;;;;;;;;;;;10.10;85.10;;;;;;4990461;28;19937;-75
2023/03/22 08:47:48;;;;;;;;;;;10.20;84.80;;;;;;4990464;28;19945;-76
2023/03/22 08:50:16;;;;;;;;;;;10.20;84.50;;;;;;4998401;28;19936;-77
2023/03/22 08:52:43;;;;;;;;;;;10.30;84.40;;;;;;4995289;28;20399;-76
2023/03/22 08:55:10;;;;;;;;;;;10.40;84.30;;;;;;4992824;28;19975;-69
2023/03/22 08:57:36;;;;;;;;;;;10.40;84.10;;;;;;4995719;28;20013;-68
2023/03/22 09:00:05;;;;;;;;;;;10.50;84.00;;;;;;5002471;28;20288;-69
2023/03/22 09:02:32;;;;;;;;;;;10.50;83.80;;;;;;5005836;28;20047;-69
2023/03/22 09:04:58;;;;;;;;;;;10.70;83.70;;;;;;5003779;28;19933;-70
2023/03/22 09:07:27;;;;;;;;;;;10.80;83.40;;;;;;5004927;28;19937;-69
2023/03/22 09:09:53;;;;;;;;;;;10.90;83.10;;;;;;5002512;28;19991;-68
2023/03/22 09:12:20;;;;;;;;;;;10.90;82.70;;;;;;5008003;28;19938;-71
2023/03/22 09:14:47;;;;;;;;;;;11.00;82.50;;;;;;5005213;28;19999;-68
2023/03/22 09:17:14;;;;;;;;;;;11.00;82.40;;;;;;5005147;28;19966;-71
2023/03/22 09:19:41;;;;;;;;;;;11.10;82.30;;;;;;5009107;28;20012;-68
2023/03/22 09:22:07;;;;;;;;;;;11.10;82.00;;;;;;5006258;28;20468;-69
2023/03/22 09:24:35;;;;;;;;;;;11.10;81.80;;;;;;5003592;28;19937;-69
2023/03/22 09:27:02;;;;;;;;;;;11.20;81.60;;;;;;5003631;28;19938;-71
2023/03/22 09:29:28;;;;;;;;;;;11.20;81.70;;;;;;5007210;28;20058;-69
2023/03/22 09:31:55;;;;;;;;;;;11.20;81.70;;;;;;5006940;28;19982;-68
2023/03/22 09:34:21;;;;;;;;;;;11.20;81.50;;;;;;5006053;28;19955;-70
2023/03/22 09:36:48;;;;;;;;;;;11.20;81.30;;;;;;5002213;28;19933;-69
2023/03/22 09:39:15;;;;;;;;;;;11.30;81.40;;;;;;5004390;28;20359;-77
2023/03/22 09:41:45;;;;;;;;;;;11.30;81.20;;;;;;4998512;28;20347;-76
2023/03/22 09:44:13;;;;;;;;;;;11.30;81.10;;;;;;5003984;28;19937;-77
2023/03/22 09:46:41;;;;;;;;;;;11.40;81.10;;;;;;5005946;28;19934;-76
2023/03/22 09:49:11;;;;;;;;;;;11.50;81.00;;;;;;4985246;28;19934;-79
2023/03/22 09:51:39;;;;;;;;;;;11.50;80.90;;;;;;4967505;28;20049;-80
2023/03/22 09:54:11;;;;;;;;;;;11.60;80.70;;;;;;4977714;28;19929;-79
2023/03/22 09:56:38;;;;;;;;;;;11.70;80.50;;;;;;4981390;28;19933;-77
2023/03/22 09:59:10;;;;;;;;;;;11.80;80.30;;;;;;4990976;28;19983;-78
2023/03/22 10:01:41;;;;;;;;;;;11.80;79.90;;;;;;5004583;28;20619;-76
2023/03/22 10:04:18;;;;;;;;;;;11.90;79.50;;;;;;5000128;28;20766;-78
2023/03/22 10:06:47;;;;;;;;;;;12.00;79.20;;;;;;4993993;28;20414;-76
2023/03/22 10:09:16;;;;;;;;;;;12.10;79.00;;;;;;4991917;28;19936;-79
2023/03/22 10:11:45;;;;;;;;;;;12.10;78.90;;;;;;4992468;28;19991;-75
2023/03/22 10:14:19;;;;;;;;;;;12.20;78.80;;;;;;4990285;28;20019;-74
2023/03/22 10:16:47;;;;;;;;;;;12.20;78.70;;;;;;4994099;28;20574;-74
2023/03/22 10:19:19;;;;;;;;;;;12.30;78.50;;;;;;5001803;28;19937;-75
2023/03/22 10:21:46;;;;;;;;;;;12.40;78.30;;;;;;4994956;28;19936;-74
2023/03/22 10:24:16;;;;;;;;;;;12.40;78.30;;;;;;4992849;28;19940;-77
2023/03/22 10:26:45;;;;;;;;;;;12.50;78.20;;;;;;4998080;28;19976;-76
2023/03/22 10:29:13;;;;;;;;;;;12.50;77.90;;;;;;4998760;28;19941;-76
2023/03/22 10:31:43;;;;;;;;;;;12.50;77.80;;;;;;4998782;28;19929;-77
2023/03/22 10:34:15;;;;;;;;;;;12.60;77.50;;;;;;4999005;28;19960;-74
2023/03/22 10:36:42;;;;;;;;;;;12.60;77.50;;;;;;4998616;28;19929;-74
2023/03/22 10:39:12;;;;;;;;;;;12.60;77.40;;;;;;4996102;28;19937;-76
2023/03/22 10:41:39;;;;;;;;;;;12.70;77.40;;;;;;5000044;28;19933;-75
2023/03/22 10:44:06;;;;;;;;;;;12.80;77.20;;;;;;4997660;28;19960;-76
2023/03/22 10:46:35;;;;;;;;;;;12.80;76.90;;;;;;4995801;28;19987;-74
2023/03/22 10:49:04;;;;;;;;;;;12.90;76.80;;;;;;4997599;28;20582;-77
2023/03/22 10:51:32;;;;;;;;;;;13.00;76.30;;;;;;5000156;28;20583;-77
2023/03/22 10:54:00;;;;;;;;;;;13.10;76.10;;;;;;4994471;28;19929;-77
2023/03/22 10:56:27;;;;;;;;;;;13.20;76.00;;;;;;4998380;28;19929;-74
2023/03/22 10:58:55;;;;;;;;;;;13.20;75.20;;;;;;4993993;28;19941;-75
2023/03/22 11:01:25;;;;;;;;;;;13.30;75.40;;;;;;5000784;28;19937;-77
2023/03/22 11:03:54;;;;;;;;;;;13.40;74.90;;;;;;4996524;28;19930;-74
2023/03/22 11:06:25;;;;;;;;;;;13.40;74.60;;;;;;4998788;28;19937;-77
2023/03/22 11:08:53;;;;;;;;;;;13.40;74.40;;;;;;4990485;28;20023;-78
2023/03/22 11:11:22;;;;;;;;;;;13.50;74.70;;;;;;4993174;28;19933;-77
2023/03/22 11:13:53;;;;;;;;;;;13.50;74.70;;;;;;5000632;28;19929;-74
2023/03/22 11:16:20;;;;;;;;;;;13.50;74.70;;;;;;4992545;28;19940;-76
2023/03/22 11:18:47;;;;;;;;;;;13.60;74.10;;;;;;4997508;28;20355;-74
2023/03/22 11:21:15;;;;;;;;;;;13.70;74.30;;;;;;5000149;28;19929;-80
2023/03/22 11:23:46;;;;;;;;;;;13.60;74.30;;;;;;4997206;28;19930;-76
2023/03/22 11:26:14;;;;;;;;;;;13.70;73.80;;;;;;4996496;28;20378;-75
2023/03/22 11:28:42;;;;;;;;;;;13.70;73.60;;;;;;4996233;28;20365;-75
2023/03/22 11:31:10;;;;;;;;;;;13.80;73.50;;;;;;5002674;28;19929;-74
2023/03/22 11:33:37;;;;;;;;;;;13.90;73.30;;;;;;5003343;28;19929;-74
2023/03/22 11:36:05;;;;;;;;;;;13.90;72.90;;;;;;5002345;28;20600;-76
2023/03/22 11:38:36;;;;;;;;;;;14.00;72.70;;;;;;5004952;28;20020;-76
2023/03/22 11:41:06;;;;;;;;;;;14.00;72.90;;;;;;4996959;28;19930;-75
2023/03/22 11:43:34;;;;;;;;;;;14.10;72.80;;;;;;5002544;28;20435;-77
2023/03/22 11:46:01;;;;;;;;;;;14.20;72.80;;;;;;5007738;28;19929;-77
2023/03/22 11:48:30;;;;;;;;;;;14.20;72.10;;;;;;5009223;28;19979;-75
2023/03/22 11:51:03;;;;;;;;;;;14.30;71.50;;;;;;5006971;28;19933;-78
2023/03/22 11:53:32;;;;;;;;;;;14.40;71.30;;;;;;5002971;28;19934;-75
2023/03/22 11:55:59;;;;;;;;;;;14.50;71.20;;;;;;4998601;28;19983;-78
2023/03/22 11:58:29;;;;;;;;;;;14.60;71.10;;;;;;4995635;28;20478;-74
2023/03/22 12:00:58;;;;;;;;;;;14.70;70.60;;;;;;5001986;28;20509;-77
2023/03/22 12:03:26;;;;;;;;;;;14.80;69.90;;;;;;4998016;28;19933;-75
2023/03/22 12:05:52;;;;;;;;;;;14.90;69.60;;;;;;5005208;28;19936;-75
2023/03/22 12:08:21;;;;;;;;;;;15.00;69.60;;;;;;4997193;28;19930;-80
2023/03/22 12:10:51;;;;;;;;;;;15.00;69.60;;;;;;4996008;28;19940;-77
2023/03/22 12:13:20;;;;;;;;;;;15.10;69.10;;;;;;5000062;28;20046;-76
2023/03/22 12:15:52;;;;;;;;;;;15.20;68.10;;;;;;4996690;28;20017;-75
2023/03/22 12:18:22;;;;;;;;;;;15.30;67.80;;;;;;5005502;28;20295;-77
2023/03/22 12:20:51;;;;;;;;;;;15.40;67.30;;;;;;5006541;28;20392;-79
2023/03/22 12:23:19;;;;;;;;;;;15.40;67.10;;;;;;5004802;28;19938;-78
2023/03/22 12:25:48;;;;;;;;;;;15.50;66.90;;;;;;5006984;28;20403;-77
2023/03/22 12:28:17;;;;;;;;;;;15.60;66.50;;;;;;5001384;28;21901;-81
2023/03/22 12:30:45;;;;;;;;;;;15.60;66.40;;;;;;4982606;28;19929;-76
2023/03/22 12:33:18;;;;;;;;;;;15.60;66.50;;;;;;5001594;28;19948;-76
2023/03/22 12:35:45;;;;;;;;;;;15.70;66.10;;;;;;4997506;28;19933;-73
2023/03/22 12:38:19;;;;;;;;;;;15.70;65.70;;;;;;5007474;28;19933;-72
2023/03/22 12:40:45;;;;;;;;;;;15.80;65.50;;;;;;4999043;28;19930;-71
2023/03/22 12:43:14;;;;;;;;;;;15.80;65.10;;;;;;5004503;28;19929;-72
2023/03/22 12:45:46;;;;;;;;;;;15.90;64.70;;;;;;5005707;28;19934;-70
2023/03/22 12:48:15;;;;;;;;;;;16.00;65.10;;;;;;5004040;28;19947;-71
2023/03/22 12:50:45;;;;;;;;;;;15.90;65.20;;;;;;5006968;28;19936;-71
2023/03/22 12:53:12;;;;;;;;;;;16.00;64.80;;;;;;5007042;28;20304;-70
2023/03/22 12:55:39;;;;;;;;;;;16.10;64.90;;;;;;5006644;28;20311;-71
2023/03/22 12:58:07;;;;;;;;;;;16.10;64.00;;;;;;5006921;28;19933;-69
2023/03/22 13:00:35;;;;;;;;;;;16.20;64.70;;;;;;4998550;28;19933;-72
2023/03/22 13:03:05;;;;;;;;;;;16.20;64.80;;;;;;5002429;28;19929;-73
2023/03/22 13:05:33;;;;;;;;;;;16.20;64.20;;;;;;5004592;28;19929;-73
2023/03/22 13:08:02;;;;;;;;;;;16.30;64.00;;;;;;5008007;28;20385;-73
2023/03/22 13:10:49;;;;;;;;;;;16.30;64.00;;;;;;5002903;28;20393;-72
2023/03/22 13:13:17;;;;;;;;;;;16.30;64.20;;;;;;4997960;28;20430;-70
2023/03/22 13:15:58;;;;;;;;;;;16.40;64.30;;;;;;5006603;28;19952;-71
2023/03/22 13:18:31;;;;;;;;;;;16.40;63.70;;;;;;4998504;28;19933;-78
2023/03/22 13:21:13;;;;;;;;;;;16.50;63.30;;;;;;5002329;28;19940;-76
2023/03/22 13:23:55;;;;;;;;;;;16.50;63.10;;;;;;5001599;28;19934;-76
2023/03/22 13:26:22;;;;;;;;;;;16.60;62.80;;;;;;5005313;28;19952;-75
2023/03/22 13:28:55;;;;;;;;;;;16.60;63.10;;;;;;5003649;28;19941;-76
2023/03/22 13:31:31;;;;;;;;;;;16.60;63.60;;;;;;5006473;28;21788;-74
2023/03/22 13:34:01;;;;;;;;;;;16.60;62.80;;;;;;5004271;28;19939;-75
2023/03/22 13:36:30;;;;;;;;;;;16.50;63.50;;;;;;5004502;28;20028;-76
2023/03/22 13:39:01;;;;;;;;;;;16.50;63.40;;;;;;4998595;28;19930;-76
2023/03/22 13:41:29;;;;;;;;;;;16.50;63.10;;;;;;4997229;28;19929;-74
2023/03/22 13:43:56;;;;;;;;;;;16.50;63.40;;;;;;4999874;28;19933;-75
2023/03/22 13:46:28;;;;;;;;;;;16.40;63.30;;;;;;4999435;28;19955;-77
2023/03/22 13:48:57;;;;;;;;;;;16.40;63.30;;;;;;5000906;28;19929;-77
2023/03/22 13:51:29;;;;;;;;;;;16.40;63.80;;;;;;5007594;28;19929;-75
2023/03/22 13:53:59;;;;;;;;;;;16.40;64.00;;;;;;4999265;28;19930;-76
2023/03/22 13:56:34;;;;;;;;;;;16.50;63.20;;;;;;5000405;28;20009;-76
2023/03/22 13:59:02;;;;;;;;;;;16.50;62.60;;;;;;4995497;28;20292;-77
2023/03/22 14:01:30;;;;;;;;;;;16.50;63.10;;;;;;4998525;28;19940;-75
2023/03/22 14:03:58;;;;;;;;;;;16.50;63.70;;;;;;4998396;28;19972;-76
2023/03/22 14:06:27;;;;;;;;;;;16.50;63.90;;;;;;4999289;28;19933;-75
2023/03/22 14:08:56;;;;;;;;;;;16.50;64.30;;;;;;4984384;28;19940;-75
2023/03/22 14:11:25;;;;;;;;;;;16.40;63.70;;;;;;4996824;28;19929;-75
2023/03/22 14:13:55;;;;;;;;;;;16.40;64.00;;;;;;4999324;28;19937;-75
2023/03/22 14:16:27;;;;;;;;;;;16.50;64.90;;;;;;4992481;28;19929;-76
2023/03/22 14:18:55;;;;;;;;;;;16.50;63.90;;;;;;5001237;28;19933;-75
2023/03/22 14:21:25;;;;;;;;;;;16.50;63.50;;;;;;5001370;28;19933;-76
2023/03/22 14:23:54;;;;;;;;;;;16.50;63.10;;;;;;5002436;28;19940;-76
2023/03/22 14:26:22;;;;;;;;;;;16.60;63.10;;;;;;5002308;28;20015;-77
2023/03/22 14:28:52;;;;;;;;;;;16.60;63.50;;;;;;5003292;28;19933;-78